Time;durP1;ratioP1;P1;durP2;ratioP2;P2;SDS_P1;SDS_P2;PMS_P1;PMS_P2;Temp;Humidity;BMP_temperature;BMP_pressure;BME280_temperature;BME280_humidity;BME280_pressure;Samples;Min_cycle;Max_cycle;Signal;HPM_P1;HPM_P2
2022/04/24 00:01:58;;;;;;;13.07;11.30;;;9.20;99.90;;;;;;5095437;28;20123;-42
2022/04/24 00:04:24;;;;;;;12.63;11.32;;;9.10;99.90;;;;;;5083007;28;20050;-42
2022/04/24 00:06:53;;;;;;;13.30;11.07;;;9.10;99.90;;;;;;5081698;28;20532;-43
2022/04/24 00:09:22;;;;;;;12.85;11.48;;;9.10;99.90;;;;;;5079302;28;20085;-44
2022/04/24 00:11:48;;;;;;;13.07;11.77;;;9.10;99.90;;;;;;5087919;28;20527;-44
2022/04/24 00:14:14;;;;;;;13.48;11.73;;;9.10;99.90;;;;;;5102381;27;20052;-44
2022/04/24 00:16:41;;;;;;;13.95;11.70;;;9.00;99.90;;;;;;5101823;28;20055;-43
2022/04/24 00:19:07;;;;;;;14.20;12.70;;;9.00;99.90;;;;;;5102644;27;20047;-44
2022/04/24 00:21:33;;;;;;;14.30;12.82;;;9.00;99.90;;;;;;5097502;28;20066;-45
2022/04/24 00:23:59;;;;;;;13.82;12.20;;;9.00;99.90;;;;;;5101886;28;20044;-42
2022/04/24 00:26:30;;;;;;;13.95;11.93;;;8.90;99.90;;;;;;5101723;28;20040;-42
2022/04/24 00:28:56;;;;;;;13.15;11.85;;;8.90;99.90;;;;;;5100811;28;20558;-42
2022/04/24 00:31:21;;;;;;;12.57;11.25;;;8.90;99.90;;;;;;5097538;28;20393;-42
2022/04/24 00:33:47;;;;;;;12.95;11.15;;;8.90;99.90;;;;;;5094820;28;20039;-42
2022/04/24 00:36:16;;;;;;;14.13;12.63;;;8.80;99.90;;;;;;5103337;27;20507;-41
2022/04/24 00:38:42;;;;;;;12.45;10.93;;;8.80;99.90;;;;;;5101259;28;20043;-42
2022/04/24 00:41:07;;;;;;;13.30;11.90;;;8.70;99.90;;;;;;5099786;28;20059;-43
2022/04/24 00:43:33;;;;;;;13.13;11.88;;;8.70;99.90;;;;;;5100140;28;20552;-43
2022/04/24 00:46:18;;;;;;;12.77;11.32;;;8.70;99.90;;;;;;5101109;28;20048;-42
2022/04/24 00:48:44;;;;;;;12.68;11.38;;;8.60;99.90;;;;;;5101806;28;20047;-44
2022/04/24 00:51:11;;;;;;;11.50;10.38;;;8.60;99.90;;;;;;5103363;28;20051;-44
2022/04/24 00:53:37;;;;;;;12.27;11.07;;;8.60;99.90;;;;;;5090985;28;20128;-47
2022/04/24 00:56:05;;;;;;;12.13;10.77;;;8.50;99.90;;;;;;5089727;28;20055;-41
2022/04/24 00:58:32;;;;;;;12.63;11.02;;;8.50;99.90;;;;;;5082937;28;20091;-42
2022/04/24 01:00:58;;;;;;;14.02;10.98;;;8.50;99.90;;;;;;5081639;28;20411;-42
2022/04/24 01:03:24;;;;;;;12.48;11.18;;;8.50;99.90;;;;;;5096327;28;20059;-44
2022/04/24 01:05:50;;;;;;;11.73;10.50;;;8.40;99.90;;;;;;5101908;28;20114;-44
2022/04/24 01:08:15;;;;;;;13.05;9.88;;;8.40;99.90;;;;;;5099654;28;20202;-43
2022/04/24 01:10:41;;;;;;;11.30;10.10;;;8.40;99.90;;;;;;5110549;27;20061;-41
2022/04/24 01:13:07;;;;;;;13.18;10.13;;;8.30;99.90;;;;;;5087880;27;20120;-42
2022/04/24 01:15:33;;;;;;;12.00;10.80;;;8.40;99.90;;;;;;5101037;28;20488;-42
2022/04/24 01:18:00;;;;;;;14.35;10.60;;;8.30;99.90;;;;;;5096881;28;20047;-41
2022/04/24 01:20:26;;;;;;;13.20;9.77;;;8.30;99.90;;;;;;5080881;28;20047;-44
2022/04/24 01:22:52;;;;;;;13.98;10.02;;;8.30;99.90;;;;;;5081245;28;20040;-43
2022/04/24 01:25:18;;;;;;;11.68;10.05;;;8.30;99.90;;;;;;5079388;28;20051;-41
2022/04/24 01:27:44;;;;;;;14.68;10.90;;;8.20;99.90;;;;;;5095470;28;20468;-45
2022/04/24 01:30:10;;;;;;;11.00;9.90;;;8.20;99.90;;;;;;5099728;28;20055;-42
2022/04/24 01:32:38;;;;;;;12.73;9.70;;;8.20;99.90;;;;;;5091942;28;20172;-43
2022/04/24 01:35:07;;;;;;;11.25;10.15;;;8.10;99.90;;;;;;5100791;28;20039;-43
2022/04/24 01:37:33;;;;;;;11.70;10.25;;;8.10;99.90;;;;;;5100891;28;20534;-42
2022/04/24 01:39:58;;;;;;;11.63;9.85;;;8.10;99.90;;;;;;5100436;28;20047;-42
2022/04/24 01:42:24;;;;;;;12.18;9.80;;;8.10;99.90;;;;;;5098044;28;20573;-42
2022/04/24 01:44:50;;;;;;;12.10;8.98;;;8.00;99.90;;;;;;5108360;27;20390;-44
2022/04/24 01:47:16;;;;;;;11.13;9.48;;;8.00;99.90;;;;;;5085165;27;20490;-42
2022/04/24 01:49:42;;;;;;;12.68;9.45;;;8.00;99.90;;;;;;5085175;28;20054;-41
2022/04/24 01:52:08;;;;;;;10.80;9.70;;;8.00;99.90;;;;;;5092526;28;20654;-41
2022/04/24 01:54:35;;;;;;;12.15;9.98;;;8.00;99.90;;;;;;5084686;28;20054;-41
2022/04/24 01:57:01;;;;;;;11.63;10.43;;;8.00;99.90;;;;;;5080511;28;20101;-45
2022/04/24 01:59:27;;;;;;;11.20;9.57;;;7.90;99.90;;;;;;5080930;28;20117;-45
2022/04/24 02:01:52;;;;;;;12.27;9.48;;;7.90;99.90;;;;;;5092650;28;20486;-44
2022/04/24 02:04:22;;;;;;;11.88;10.00;;;7.90;99.90;;;;;;5082909;28;20419;-40
2022/04/24 02:06:49;;;;;;;10.68;9.18;;;7.90;99.90;;;;;;5083766;28;20052;-44
2022/04/24 02:09:15;;;;;;;10.35;9.35;;;7.90;99.90;;;;;;5097766;28;20502;-44
2022/04/24 02:11:41;;;;;;;12.32;10.18;;;7.80;99.90;;;;;;5086548;27;20059;-43
2022/04/24 02:14:07;;;;;;;11.82;10.63;;;7.80;99.90;;;;;;5077983;28;20508;-43
2022/04/24 02:16:33;;;;;;;10.82;9.73;;;7.80;99.90;;;;;;5090870;28;20457;-41
2022/04/24 02:18:59;;;;;;;11.98;10.77;;;7.70;99.90;;;;;;5107471;28;20051;-43
2022/04/24 02:21:27;;;;;;;10.98;9.85;;;7.70;99.90;;;;;;5089268;28;20040;-42
2022/04/24 02:23:53;;;;;;;11.48;9.68;;;7.60;99.90;;;;;;5096971;28;20054;-42
2022/04/24 02:26:19;;;;;;;12.55;10.40;;;7.60;99.90;;;;;;5092029;27;20048;-42
2022/04/24 02:28:45;;;;;;;12.27;10.30;;;7.60;99.90;;;;;;5089602;28;20046;-41
2022/04/24 02:31:10;;;;;;;11.90;10.75;;;7.60;99.90;;;;;;5083220;27;20048;-44
2022/04/24 02:33:36;;;;;;;11.93;10.02;;;7.60;99.90;;;;;;5087407;28;20052;-42
2022/04/24 02:36:03;;;;;;;13.35;10.32;;;7.50;99.90;;;;;;5083346;28;20410;-42
2022/04/24 02:38:29;;;;;;;11.05;9.95;;;7.50;99.90;;;;;;5093500;28;20463;-41
2022/04/24 02:40:54;;;;;;;13.52;9.80;;;7.50;99.90;;;;;;5102586;28;20131;-42
2022/04/24 02:43:20;;;;;;;13.70;10.23;;;7.40;99.90;;;;;;5104442;28;20043;-43
2022/04/24 02:45:46;;;;;;;11.43;10.32;;;7.40;99.90;;;;;;5103691;28;20564;-44
2022/04/24 02:48:13;;;;;;;13.23;10.30;;;7.30;99.90;;;;;;5084890;28;20048;-41
2022/04/24 02:50:39;;;;;;;11.45;10.35;;;7.30;99.90;;;;;;5093537;28;20056;-44
2022/04/24 02:53:06;;;;;;;12.13;10.15;;;7.30;99.90;;;;;;5081238;28;20403;-41
2022/04/24 02:55:31;;;;;;;10.40;9.40;;;7.20;99.90;;;;;;5082303;28;20362;-41
2022/04/24 02:57:57;;;;;;;12.10;10.25;;;7.20;99.90;;;;;;5082420;28;20089;-42
2022/04/24 03:00:24;;;;;;;11.50;10.25;;;7.20;99.90;;;;;;5087647;28;20079;-42
2022/04/24 03:02:51;;;;;;;11.60;10.50;;;7.10;99.90;;;;;;5093901;28;20047;-42
2022/04/24 03:05:22;;;;;;;11.80;10.25;;;7.10;99.90;;;;;;5082387;28;20048;-42
2022/04/24 03:07:48;;;;;;;11.85;10.48;;;7.20;99.90;;;;;;5085806;28;20328;-42
2022/04/24 03:10:15;;;;;;;13.35;10.70;;;7.10;99.90;;;;;;5090976;28;20058;-44
2022/04/24 03:12:42;;;;;;;12.05;10.82;;;7.10;99.90;;;;;;5104352;28;20055;-47
2022/04/24 03:15:09;;;;;;;10.98;9.88;;;7.10;99.90;;;;;;5103525;27;20053;-42
2022/04/24 03:17:35;;;;;;;11.65;10.45;;;7.10;99.90;;;;;;5097597;28;20105;-44
2022/04/24 03:20:03;;;;;;;11.70;9.98;;;7.10;99.90;;;;;;5092293;28;20109;-42
2022/04/24 03:22:30;;;;;;;11.20;9.45;;;7.10;99.90;;;;;;5087162;28;20052;-44
2022/04/24 03:24:57;;;;;;;10.63;9.52;;;7.10;99.90;;;;;;5103166;28;20047;-48
2022/04/24 03:27:23;;;;;;;12.90;10.95;;;7.00;99.90;;;;;;5104154;28;20058;-42
2022/04/24 03:29:49;;;;;;;12.85;10.70;;;7.00;99.90;;;;;;5101567;28;20130;-43
2022/04/24 03:32:15;;;;;;;11.80;10.70;;;6.90;99.90;;;;;;5103559;28;20497;-42
2022/04/24 03:34:41;;;;;;;18.00;16.20;;;6.70;99.90;;;;;;5103224;28;20044;-43
2022/04/24 03:37:07;;;;;;;21.58;18.77;;;6.60;99.90;;;;;;5102110;28;20406;-44
2022/04/24 03:39:32;;;;;;;24.95;20.25;;;6.40;99.90;;;;;;5099599;28;20095;-41
2022/04/24 03:41:58;;;;;;;25.05;22.42;;;6.40;99.90;;;;;;5096194;27;20190;-45
2022/04/24 03:44:24;;;;;;;27.35;24.45;;;6.30;99.90;;;;;;5091464;28;20147;-42
2022/04/24 03:46:50;;;;;;;26.95;23.92;;;6.20;99.90;;;;;;5080661;28;20058;-46
2022/04/24 03:49:16;;;;;;;28.75;23.75;;;6.10;99.90;;;;;;5097892;28;20532;-42
2022/04/24 03:51:42;;;;;;;28.92;25.83;;;6.00;99.90;;;;;;5087370;28;20056;-43
2022/04/24 03:54:08;;;;;;;28.42;25.52;;;6.00;99.90;;;;;;5081492;28;20050;-41
2022/04/24 03:56:34;;;;;;;30.02;26.83;;;6.00;99.90;;;;;;5082293;28;20475;-42
2022/04/24 03:59:00;;;;;;;31.90;26.70;;;6.00;99.90;;;;;;5106760;27;20043;-45
2022/04/24 04:01:26;;;;;;;28.13;25.33;;;6.00;99.90;;;;;;5098578;27;20433;-42
2022/04/24 04:03:52;;;;;;;26.33;23.20;;;5.90;99.90;;;;;;5082926;28;20051;-42
2022/04/24 04:06:19;;;;;;;26.05;22.23;;;6.00;99.90;;;;;;5093153;28;20599;-42
2022/04/24 04:08:45;;;;;;;22.67;20.35;;;5.90;99.90;;;;;;5088994;27;20128;-42
2022/04/24 04:11:11;;;;;;;20.33;17.92;;;5.90;99.90;;;;;;5095586;27;20044;-44
2022/04/24 04:13:36;;;;;;;20.90;18.63;;;5.90;99.90;;;;;;5102820;28;20054;-42
2022/04/24 04:16:02;;;;;;;19.40;16.20;;;5.90;99.90;;;;;;5100927;28;20072;-43
2022/04/24 04:18:29;;;;;;;20.55;16.25;;;5.90;99.90;;;;;;5088423;28;20053;-42
2022/04/24 04:20:55;;;;;;;17.17;14.73;;;5.90;99.90;;;;;;5102294;28;20079;-44
2022/04/24 04:23:23;;;;;;;16.95;14.10;;;6.00;99.90;;;;;;5101990;28;20197;-44
2022/04/24 04:25:49;;;;;;;15.13;13.52;;;6.00;99.90;;;;;;5099791;28;20140;-44
2022/04/24 04:28:15;;;;;;;15.52;13.90;;;6.00;99.90;;;;;;5101774;28;20051;-42
2022/04/24 04:30:41;;;;;;;16.05;14.45;;;6.10;99.90;;;;;;5102042;28;20566;-42
2022/04/24 04:33:07;;;;;;;15.35;13.55;;;6.10;99.90;;;;;;5102301;28;20761;-44
2022/04/24 04:35:33;;;;;;;16.58;13.48;;;6.10;99.90;;;;;;5104768;28;20047;-42
2022/04/24 04:37:58;;;;;;;16.85;13.48;;;6.20;99.90;;;;;;5104178;28;20046;-43
2022/04/24 04:40:24;;;;;;;16.83;13.27;;;6.30;99.90;;;;;;5102397;28;20044;-51
2022/04/24 04:42:50;;;;;;;14.57;13.07;;;6.30;99.90;;;;;;5101951;28;20810;-43
2022/04/24 04:45:16;;;;;;;15.52;12.82;;;6.40;99.90;;;;;;5098592;28;20546;-43
2022/04/24 04:47:42;;;;;;;15.40;12.70;;;6.50;99.90;;;;;;5098055;27;20054;-43
2022/04/24 04:50:08;;;;;;;15.20;11.98;;;6.50;99.90;;;;;;5109713;27;20067;-42
2022/04/24 04:52:35;;;;;;;14.02;12.35;;;6.60;99.90;;;;;;5102439;27;20043;-43
2022/04/24 04:55:01;;;;;;;13.48;12.07;;;6.60;99.90;;;;;;5093003;27;20486;-44
2022/04/24 04:57:27;;;;;;;13.15;11.57;;;6.60;99.90;;;;;;5121717;27;20136;-43
2022/04/24 04:59:53;;;;;;;13.20;11.80;;;6.60;99.90;;;;;;5117226;27;20142;-43
2022/04/24 05:02:19;;;;;;;13.10;11.70;;;6.70;99.90;;;;;;5121551;27;20465;-42
2022/04/24 05:04:45;;;;;;;13.23;11.80;;;6.80;99.90;;;;;;5121916;27;20561;-42
2022/04/24 05:07:11;;;;;;;12.80;11.55;;;6.80;99.90;;;;;;5122133;27;20052;-41
2022/04/24 05:09:37;;;;;;;13.65;11.38;;;6.90;99.90;;;;;;5121353;27;20538;-41
2022/04/24 05:12:04;;;;;;;12.90;10.57;;;7.00;99.90;;;;;;5121759;27;20127;-41
2022/04/24 05:14:31;;;;;;;12.73;10.65;;;7.20;99.90;;;;;;5120789;27;20076;-42
2022/04/24 05:16:57;;;;;;;11.68;10.13;;;7.20;99.90;;;;;;5102533;27;20069;-42
2022/04/24 05:19:26;;;;;;;14.30;11.52;;;7.30;99.90;;;;;;5122334;27;20083;-41
2022/04/24 05:21:52;;;;;;;12.45;11.15;;;7.30;99.90;;;;;;5108785;27;20061;-42
2022/04/24 05:24:18;;;;;;;12.57;10.88;;;7.40;99.90;;;;;;5120662;27;20047;-43
2022/04/24 05:26:44;;;;;;;12.18;10.07;;;7.50;99.90;;;;;;5112143;27;20038;-42
2022/04/24 05:29:10;;;;;;;11.20;10.13;;;7.50;99.90;;;;;;5104943;27;20051;-43
2022/04/24 05:31:36;;;;;;;11.88;9.90;;;7.60;99.90;;;;;;5099609;28;20055;-42
2022/04/24 05:34:02;;;;;;;12.05;9.70;;;7.60;99.90;;;;;;5100769;28;20043;-41
2022/04/24 05:36:28;;;;;;;15.35;10.60;;;7.80;99.90;;;;;;5101865;27;20110;-42
2022/04/24 05:38:53;;;;;;;10.07;9.07;;;7.90;99.90;;;;;;5083238;28;20354;-41
2022/04/24 05:41:20;;;;;;;12.88;9.57;;;8.00;99.90;;;;;;5101573;28;20050;-42
2022/04/24 05:43:46;;;;;;;13.48;10.00;;;8.10;99.90;;;;;;5101212;28;20088;-43
2022/04/24 05:46:12;;;;;;;9.45;8.50;;;8.20;99.90;;;;;;5100475;28;20047;-42
2022/04/24 05:48:38;;;;;;;11.23;9.65;;;8.40;99.90;;;;;;5113253;27;20850;-44
2022/04/24 05:51:04;;;;;;;10.98;9.75;;;8.70;99.90;;;;;;5123315;27;20047;-45
2022/04/24 05:53:29;;;;;;;12.05;10.15;;;9.30;99.90;;;;;;5122606;27;20117;-43
2022/04/24 05:55:58;;;;;;;10.65;9.55;;;9.70;99.90;;;;;;5120966;27;20055;-43
2022/04/24 05:58:24;;;;;;;12.77;9.90;;;9.90;99.90;;;;;;5119941;27;20035;-44
2022/04/24 06:00:49;;;;;;;12.23;9.63;;;10.00;99.90;;;;;;5098833;28;20100;-43
2022/04/24 06:03:15;;;;;;;9.25;8.27;;;10.30;99.90;;;;;;5104380;28;20124;-42
2022/04/24 06:05:41;;;;;;;9.43;8.52;;;11.40;99.90;;;;;;5100654;28;20054;-43
2022/04/24 06:08:07;;;;;;;9.32;8.43;;;12.90;99.90;;;;;;5099559;28;20093;-45
2022/04/24 06:10:33;;;;;;;9.07;8.23;;;14.30;99.90;;;;;;5102787;27;20047;-43
2022/04/24 06:12:58;;;;;;;9.05;8.25;;;15.70;99.90;;;;;;5081680;28;20594;-42
2022/04/24 06:15:26;;;;;;;9.07;8.10;;;16.70;99.90;;;;;;5104958;28;20066;-44
2022/04/24 06:17:53;;;;;;;10.10;8.30;;;17.40;97.50;;;;;;5100491;27;20090;-42
2022/04/24 06:20:21;;;;;;;9.77;8.30;;;18.20;94.70;;;;;;5096348;28;20062;-43
2022/04/24 06:22:49;;;;;;;10.05;8.65;;;18.80;95.40;;;;;;5085251;28;20055;-43
2022/04/24 06:25:28;;;;;;;8.32;7.53;;;19.70;93.90;;;;;;5104272;28;20054;-42
2022/04/24 06:27:55;;;;;;;8.98;8.10;;;20.00;91.40;;;;;;5085836;28;20126;-42
2022/04/24 06:30:23;;;;;;;9.32;8.35;;;20.60;91.20;;;;;;5108849;27;20176;-45
2022/04/24 06:32:49;;;;;;;9.02;8.15;;;20.80;89.90;;;;;;5123972;27;20062;-42
2022/04/24 06:35:16;;;;;;;8.57;7.78;;;20.90;88.40;;;;;;5112842;27;20482;-44
2022/04/24 06:37:44;;;;;;;9.10;8.30;;;20.80;85.70;;;;;;5103478;28;20047;-46
2022/04/24 06:40:12;;;;;;;9.65;8.77;;;20.50;84.50;;;;;;5087439;28;20534;-44
2022/04/24 06:42:58;;;;;;;10.80;9.43;;;20.90;83.50;;;;;;5116304;27;20476;-43
2022/04/24 06:45:44;;;;;;;9.23;8.25;;;20.90;84.40;;;;;;5089207;27;20061;-43
2022/04/24 06:48:15;;;;;;;9.63;8.73;;;21.30;83.50;;;;;;5102919;28;20047;-44
2022/04/24 06:50:43;;;;;;;10.07;9.07;;;21.60;83.60;;;;;;5120889;27;20043;-45
2022/04/24 06:53:11;;;;;;;9.50;8.52;;;21.60;82.80;;;;;;5106699;27;20532;-45
2022/04/24 06:55:41;;;;;;;8.88;8.07;;;21.70;80.30;;;;;;5103899;27;20525;-43
2022/04/24 06:58:10;;;;;;;10.00;9.00;;;21.40;81.40;;;;;;5114776;27;20093;-46
2022/04/24 07:00:41;;;;;;;9.48;8.52;;;20.80;82.20;;;;;;5106810;27;20043;-44
2022/04/24 07:03:20;;;;;;;10.30;8.30;;;19.50;82.80;;;;;;5089922;28;20869;-44
2022/04/24 07:05:46;;;;;;;9.85;9.00;;;18.70;84.00;;;;;;5106884;27;20110;-43
2022/04/24 07:08:12;;;;;;;9.07;7.93;;;17.80;85.00;;;;;;5116756;27;20047;-45
2022/04/24 07:10:38;;;;;;;10.38;9.30;;;17.00;87.10;;;;;;5089575;27;20115;-50
2022/04/24 07:13:05;;;;;;;10.18;9.13;;;16.70;88.80;;;;;;5107532;27;20486;-43
2022/04/24 07:15:34;;;;;;;10.73;8.38;;;16.20;89.80;;;;;;5104835;28;20397;-46
2022/04/24 07:18:01;;;;;;;9.25;8.35;;;15.50;90.50;;;;;;5111194;27;20501;-45
2022/04/24 07:20:30;;;;;;;10.63;7.95;;;15.50;91.50;;;;;;5123120;27;20043;-43
2022/04/24 07:23:00;;;;;;;8.52;7.45;;;15.60;91.00;;;;;;5096299;27;20089;-46
2022/04/24 07:25:28;;;;;;;8.23;7.43;;;15.50;90.90;;;;;;5111076;27;20047;-43
2022/04/24 07:27:54;;;;;;;10.60;8.57;;;15.20;91.10;;;;;;5121197;27;20512;-42
2022/04/24 07:30:21;;;;;;;9.02;7.93;;;14.90;91.60;;;;;;5121793;27;20092;-44
2022/04/24 07:32:53;;;;;;;9.35;8.45;;;14.90;93.00;;;;;;5115378;27;20443;-44
2022/04/24 07:35:28;;;;;;;9.63;7.97;;;15.10;93.20;;;;;;5118630;27;20055;-43
2022/04/24 07:37:54;;;;;;;8.57;7.68;;;15.10;94.30;;;;;;5117042;27;20053;-42
2022/04/24 07:40:23;;;;;;;9.75;7.93;;;14.90;93.00;;;;;;5110930;27;20043;-42
2022/04/24 07:42:51;;;;;;;8.60;6.93;;;14.80;92.80;;;;;;5109964;27;20485;-49
2022/04/24 07:45:24;;;;;;;9.07;7.40;;;14.70;93.90;;;;;;5084468;27;20582;-46
2022/04/24 07:47:52;;;;;;;14.60;7.47;;;14.60;93.60;;;;;;5102084;27;20048;-44
2022/04/24 07:50:20;;;;;;;8.82;6.90;;;14.50;93.80;;;;;;5107706;27;20078;-44
2022/04/24 07:52:47;;;;;;;9.77;6.80;;;14.40;93.70;;;;;;5083013;27;20132;-44
2022/04/24 07:55:17;;;;;;;9.98;7.18;;;14.40;94.90;;;;;;5081430;27;20039;-43
2022/04/24 07:57:43;;;;;;;7.75;6.32;;;14.60;95.60;;;;;;5065264;27;20073;-44
2022/04/24 08:00:10;;;;;;;9.75;5.78;;;14.60;95.70;;;;;;5094009;27;20059;-43
2022/04/24 08:02:54;;;;;;;7.13;5.72;;;14.70;94.40;;;;;;5103089;27;20461;-44
2022/04/24 08:05:25;;;;;;;6.25;4.97;;;14.60;93.70;;;;;;5104807;27;20115;-46
2022/04/24 08:07:52;;;;;;;9.30;4.70;;;14.50;93.80;;;;;;5101889;27;20039;-44
2022/04/24 08:10:20;;;;;;;5.45;4.50;;;14.50;93.20;;;;;;5102578;27;20050;-46
2022/04/24 08:12:47;;;;;;;5.85;4.10;;;14.60;94.00;;;;;;5091509;27;20082;-45
2022/04/24 08:15:12;;;;;;;7.93;4.10;;;14.70;93.30;;;;;;5092267;27;20469;-42
2022/04/24 08:17:38;;;;;;;8.25;4.65;;;14.80;93.60;;;;;;5114956;27;20047;-43
2022/04/24 08:20:06;;;;;;;5.32;4.22;;;14.80;94.00;;;;;;5109958;27;20071;-45
2022/04/24 08:22:43;;;;;;;5.22;3.70;;;15.00;93.80;;;;;;5108134;27;20031;-46
2022/04/24 08:25:11;;;;;;;5.03;3.42;;;15.00;93.30;;;;;;5115745;27;20404;-47
2022/04/24 08:27:37;;;;;;;6.30;3.80;;;15.00;92.50;;;;;;5107942;27;20932;-44
2022/04/24 08:30:08;;;;;;;4.32;2.95;;;14.90;92.10;;;;;;5111386;27;20661;-43
2022/04/24 08:32:35;;;;;;;4.03;2.70;;;14.90;92.60;;;;;;5112590;27;20050;-45
2022/04/24 08:35:01;;;;;;;4.63;3.22;;;15.00;92.70;;;;;;5106273;27;20035;-45
2022/04/24 08:37:28;;;;;;;3.88;2.90;;;14.90;92.00;;;;;;5115256;27;20081;-46
2022/04/24 08:39:55;;;;;;;4.38;2.83;;;14.90;91.70;;;;;;5116230;27;20455;-44
2022/04/24 08:42:24;;;;;;;6.20;2.53;;;14.90;92.40;;;;;;5120505;27;20045;-43
2022/04/24 08:44:51;;;;;;;5.72;2.95;;;14.80;92.70;;;;;;5113052;27;20048;-43
2022/04/24 08:47:20;;;;;;;4.05;2.40;;;14.90;92.00;;;;;;5113297;27;20040;-44
2022/04/24 08:49:46;;;;;;;4.00;2.47;;;14.90;91.80;;;;;;5122095;27;20063;-47
2022/04/24 08:52:14;;;;;;;6.03;2.60;;;14.90;91.50;;;;;;5103398;27;20058;-44
2022/04/24 08:54:41;;;;;;;4.85;2.42;;;14.90;91.60;;;;;;5123095;27;20054;-45
2022/04/24 08:57:11;;;;;;;5.40;3.17;;;14.80;91.20;;;;;;5122642;27;20088;-44
2022/04/24 08:59:38;;;;;;;3.88;2.88;;;14.80;90.90;;;;;;5101309;27;20462;-45
2022/04/24 09:02:05;;;;;;;5.00;2.78;;;14.90;92.10;;;;;;5114079;27;20502;-45
2022/04/24 09:04:36;;;;;;;4.35;2.47;;;15.10;92.80;;;;;;5111246;27;20107;-46
2022/04/24 09:07:06;;;;;;;4.78;3.15;;;15.30;91.80;;;;;;5085475;28;20056;-45
2022/04/24 09:09:41;;;;;;;5.90;2.85;;;15.20;91.10;;;;;;5101366;28;20093;-45
2022/04/24 09:12:08;;;;;;;6.40;3.15;;;15.10;91.20;;;;;;5083317;28;20374;-43
2022/04/24 09:14:34;;;;;;;6.40;3.58;;;15.00;91.70;;;;;;5082717;28;20047;-45
2022/04/24 09:17:07;;;;;;;4.85;2.70;;;15.20;92.30;;;;;;5101306;28;20079;-43
2022/04/24 09:19:36;;;;;;;4.45;3.00;;;15.30;92.10;;;;;;5101680;28;20107;-48
2022/04/24 09:22:07;;;;;;;4.68;3.55;;;15.40;92.30;;;;;;5083736;28;20058;-43
2022/04/24 09:24:41;;;;;;;5.65;3.13;;;15.60;92.60;;;;;;5101900;28;20058;-45
2022/04/24 09:27:20;;;;;;;4.28;3.15;;;15.70;91.30;;;;;;5113141;27;20799;-43
2022/04/24 09:29:55;;;;;;;3.72;2.67;;;15.70;91.00;;;;;;5120749;27;20508;-44
2022/04/24 09:32:24;;;;;;;4.50;3.10;;;15.70;91.10;;;;;;5116984;27;20453;-46
2022/04/24 09:34:51;;;;;;;7.15;2.88;;;15.50;90.30;;;;;;5094788;27;20059;-47
2022/04/24 09:37:17;;;;;;;4.90;2.80;;;15.40;90.20;;;;;;5123110;27;20053;-45
2022/04/24 09:39:43;;;;;;;3.17;2.63;;;15.50;91.10;;;;;;5123490;27;20122;-47
2022/04/24 09:42:14;;;;;;;6.07;3.17;;;15.50;90.80;;;;;;5119555;27;20061;-45
2022/04/24 09:44:50;;;;;;;5.63;3.83;;;15.50;91.40;;;;;;5109508;27;20405;-44
2022/04/24 09:47:23;;;;;;;5.47;2.92;;;15.70;92.00;;;;;;5119352;27;20051;-48
2022/04/24 09:49:50;;;;;;;6.13;3.28;;;15.80;90.90;;;;;;5113042;27;20051;-45
2022/04/24 09:52:25;;;;;;;4.95;2.78;;;15.80;90.80;;;;;;5116316;27;20058;-44
2022/04/24 09:54:52;;;;;;;3.67;2.83;;;15.80;90.90;;;;;;5094672;28;20051;-43
2022/04/24 09:57:27;;;;;;;6.43;3.13;;;15.80;91.00;;;;;;5107755;27;20154;-46
2022/04/24 09:59:53;;;;;;;3.90;2.83;;;15.80;91.50;;;;;;5121022;27;20053;-45
2022/04/24 10:02:20;;;;;;;4.57;2.92;;;15.80;90.80;;;;;;5119892;27;20090;-43
2022/04/24 10:04:46;;;;;;;11.35;3.30;;;15.80;91.60;;;;;;5099762;28;20055;-45
2022/04/24 10:07:16;;;;;;;4.25;2.78;;;15.80;92.40;;;;;;5120679;28;20126;-45
2022/04/24 10:09:44;;;;;;;3.45;2.90;;;16.10;91.80;;;;;;5130385;27;20062;-43
2022/04/24 10:12:21;;;;;;;4.63;3.38;;;16.00;90.60;;;;;;5120991;28;20374;-43
2022/04/24 10:14:55;;;;;;;4.30;3.50;;;16.20;91.50;;;;;;5092533;28;20061;-48
2022/04/24 10:17:45;;;;;;;4.47;3.22;;;16.10;90.20;;;;;;5118037;28;20103;-43
2022/04/24 10:20:27;;;;;;;5.78;3.60;;;16.10;91.70;;;;;;5120209;28;20116;-44
2022/04/24 10:22:54;;;;;;;4.60;3.70;;;16.30;93.60;;;;;;5118722;28;20055;-45
2022/04/24 10:25:52;;;;;;;7.28;3.75;;;16.30;91.40;;;;;;5111766;28;20085;-44
2022/04/24 10:28:19;;;;;;;4.03;3.17;;;16.20;90.20;;;;;;5028603;28;20062;-44
2022/04/24 10:31:07;;;;;;;7.97;3.60;;;16.20;91.30;;;;;;5029774;28;20049;-43
2022/04/24 10:33:34;;;;;;;8.55;3.97;;;16.40;92.20;;;;;;5032830;28;20689;-45
2022/04/24 10:36:06;;;;;;;7.40;3.70;;;16.30;92.10;;;;;;5020846;28;20053;-45
2022/04/24 10:38:33;;;;;;;4.65;3.22;;;16.40;91.40;;;;;;5026628;28;20586;-46
2022/04/24 10:41:24;;;;;;;4.82;3.80;;;16.50;91.40;;;;;;5026162;28;20056;-43
2022/04/24 10:44:16;;;;;;;5.22;3.80;;;16.40;91.20;;;;;;5015269;28;20063;-44
2022/04/24 10:46:46;;;;;;;6.20;3.75;;;16.40;92.20;;;;;;5025891;28;20065;-43
2022/04/24 10:49:14;;;;;;;5.72;3.83;;;16.40;91.20;;;;;;5037087;28;20049;-45
2022/04/24 10:51:45;;;;;;;4.82;3.50;;;16.40;90.80;;;;;;5028988;28;20942;-45
2022/04/24 10:54:15;;;;;;;4.13;3.00;;;16.30;90.80;;;;;;5031802;28;20060;-48
2022/04/24 10:56:43;;;;;;;5.32;3.15;;;16.30;90.60;;;;;;5022097;28;20484;-44
2022/04/24 10:59:13;;;;;;;5.93;3.58;;;16.40;90.80;;;;;;5019547;28;20046;-50
2022/04/24 11:01:59;;;;;;;4.43;3.03;;;16.50;90.80;;;;;;5020525;28;20660;-48
2022/04/24 11:04:25;;;;;;;4.43;2.55;;;16.60;90.00;;;;;;5090008;27;20098;-45
2022/04/24 11:06:54;;;;;;;4.22;3.00;;;16.50;90.10;;;;;;5119178;27;20126;-44
2022/04/24 11:09:21;;;;;;;7.05;4.15;;;16.80;91.00;;;;;;5109098;27;20040;-45
2022/04/24 11:11:56;;;;;;;5.43;2.92;;;16.90;91.30;;;;;;5097536;27;20064;-46
2022/04/24 11:14:25;;;;;;;4.60;2.80;;;17.00;90.90;;;;;;5115497;27;20051;-44
2022/04/24 11:16:59;;;;;;;5.82;3.00;;;16.90;90.40;;;;;;5111303;27;20047;-44
2022/04/24 11:19:27;;;;;;;5.05;2.40;;;16.70;91.10;;;;;;5111432;27;20509;-46
2022/04/24 11:21:58;;;;;;;8.43;3.50;;;16.40;88.70;;;;;;5107498;27;20051;-44
2022/04/24 11:24:29;;;;;;;5.43;2.80;;;16.50;89.80;;;;;;5108423;27;20131;-44
2022/04/24 11:26:57;;;;;;;8.55;2.70;;;16.50;90.60;;;;;;5103660;27;20119;-44
2022/04/24 11:29:23;;;;;;;4.32;2.60;;;16.70;89.60;;;;;;5110714;27;20148;-44
2022/04/24 11:31:55;;;;;;;4.63;2.50;;;16.70;88.20;;;;;;5106677;27;20047;-44
2022/04/24 11:34:23;;;;;;;5.60;3.15;;;16.70;88.40;;;;;;5105864;27;20050;-46
2022/04/24 11:36:54;;;;;;;11.27;2.88;;;16.70;90.50;;;;;;5116372;27;20057;-46
2022/04/24 11:39:20;;;;;;;6.32;3.58;;;16.80;92.60;;;;;;5107225;27;20247;-45
2022/04/24 11:41:46;;;;;;;4.45;3.85;;;16.90;92.00;;;;;;5113896;27;20379;-46
2022/04/24 11:52:37;;;;;;;4.38;3.45;;;16.80;91.70;;;;;;5109390;27;20047;-45
2022/04/24 11:55:16;;;;;;;15.13;5.22;;;16.70;91.20;;;;;;5125025;27;20134;-47
2022/04/24 11:57:43;;;;;;;7.43;3.95;;;16.60;91.30;;;;;;5107021;27;20058;-45
2022/04/24 12:00:14;;;;;;;31.42;6.57;;;16.70;91.70;;;;;;5102053;27;20058;-46
2022/04/24 12:02:42;;;;;;;8.23;4.28;;;16.50;94.20;;;;;;5112409;27;20043;-44
2022/04/24 12:05:11;;;;;;;9.55;5.00;;;16.50;94.20;;;;;;5119008;27;20058;-44
2022/04/24 12:07:38;;;;;;;21.63;5.75;;;16.30;93.80;;;;;;5117527;27;20422;-45
2022/04/24 12:10:05;;;;;;;7.63;5.20;;;15.90;94.50;;;;;;5121235;27;20104;-44
2022/04/24 12:12:42;;;;;;;7.93;4.68;;;15.80;95.20;;;;;;5117186;27;20042;-45
2022/04/24 12:15:16;;;;;;;7.00;5.50;;;15.80;95.20;;;;;;5115595;27;20042;-45
2022/04/24 12:17:53;;;;;;;6.60;5.35;;;15.50;96.30;;;;;;5116087;27;20096;-45
2022/04/24 12:20:20;;;;;;;8.25;5.45;;;15.70;95.80;;;;;;5092086;27;20155;-44
2022/04/24 12:22:46;;;;;;;8.18;5.65;;;15.70;95.30;;;;;;5118461;27;20486;-51
2022/04/24 12:25:18;;;;;;;13.18;6.00;;;15.80;96.70;;;;;;5126994;27;20043;-45
2022/04/24 12:27:54;;;;;;;8.82;6.32;;;16.00;97.20;;;;;;5118194;27;20945;-44
2022/04/24 12:30:21;;;;;;;8.38;5.57;;;15.90;97.10;;;;;;5122901;27;20102;-45
2022/04/24 12:32:52;;;;;;;66.18;10.38;;;15.90;96.70;;;;;;5116454;27;20043;-48
2022/04/24 12:35:33;;;;;;;8.23;5.68;;;15.80;95.90;;;;;;5104033;27;20105;-45
2022/04/24 12:37:59;;;;;;;12.52;5.95;;;15.90;97.20;;;;;;5094660;27;20926;-43
2022/04/24 12:40:26;;;;;;;7.93;5.95;;;15.90;97.60;;;;;;5120990;27;20147;-46
2022/04/24 12:42:56;;;;;;;11.82;6.05;;;16.00;98.40;;;;;;5119814;27;20079;-44
2022/04/24 12:45:22;;;;;;;11.85;6.28;;;16.00;96.80;;;;;;5097158;27;20046;-44
2022/04/24 12:47:49;;;;;;;6.90;4.75;;;15.90;96.80;;;;;;5113437;27;20047;-45
2022/04/24 12:50:16;;;;;;;9.32;5.75;;;15.90;96.70;;;;;;5116134;27;20043;-46
2022/04/24 12:52:42;;;;;;;9.30;5.30;;;15.90;96.50;;;;;;5112783;27;20127;-44
2022/04/24 12:55:09;;;;;;;9.88;6.32;;;15.90;96.40;;;;;;5095183;27;20059;-45
2022/04/24 12:57:35;;;;;;;9.82;5.88;;;15.90;97.40;;;;;;5099566;27;20125;-45